createdAt,value
2019-02-26T00:02:21.527Z,5.47
2019-02-26T00:04:53.516Z,8.20
2019-02-26T00:07:24.909Z,8.07
2019-02-26T00:09:53.564Z,6.10
2019-02-26T00:12:24.200Z,7.10
2019-02-26T00:14:55.028Z,8.97
2019-02-26T00:17:24.157Z,6.27
2019-02-26T00:19:53.152Z,11.00
2019-02-26T00:22:22.113Z,10.37
2019-02-26T00:24:51.334Z,7.13
2019-02-26T00:27:20.079Z,6.63
2019-02-26T00:29:50.825Z,9.93
2019-02-26T00:32:19.705Z,7.43
2019-02-26T00:34:48.450Z,6.00
2019-02-26T00:37:17.633Z,7.30
2019-02-26T00:39:47.416Z,10.70
2019-02-26T00:42:19.488Z,6.50
2019-02-26T00:44:51.313Z,9.30
2019-02-26T00:47:19.052Z,9.60
2019-02-26T00:49:48.599Z,7.90
2019-02-26T00:52:18.548Z,7.53
2019-02-26T00:54:47.497Z,8.03
2019-02-26T00:57:16.736Z,9.43
2019-02-26T00:59:46.407Z,6.73
2019-02-26T01:02:16.649Z,6.80
2019-02-26T01:04:46.722Z,6.60
2019-02-26T01:07:16.672Z,7.27
2019-02-26T01:09:45.615Z,7.40
2019-02-26T01:12:16.607Z,7.80
2019-02-26T01:14:46.365Z,8.80
2019-02-26T01:17:18.837Z,9.10
2019-02-26T01:19:47.693Z,6.83
2019-02-26T01:22:16.880Z,6.90
2019-02-26T01:24:47.620Z,8.97
2019-02-26T01:27:16.759Z,10.60
2019-02-26T01:29:47.334Z,10.57
2019-02-26T01:32:18.000Z,10.87
2019-02-26T01:34:49.460Z,9.20
2019-02-26T01:37:18.025Z,11.83
2019-02-26T01:39:49.587Z,9.03
2019-02-26T01:42:22.375Z,9.33
2019-02-26T01:44:48.596Z,10.37
2019-02-26T01:47:19.508Z,7.10
2019-02-26T01:49:49.408Z,6.93
2019-02-26T01:52:19.425Z,10.33
2019-02-26T01:54:48.601Z,9.37
2019-02-26T01:57:17.801Z,7.57
2019-02-26T01:59:49.910Z,8.30
2019-02-26T02:02:20.085Z,11.73
2019-02-26T02:04:47.921Z,9.90
2019-02-26T02:07:16.694Z,8.90
2019-02-26T02:09:48.683Z,10.03
2019-02-26T02:12:16.787Z,8.83
2019-02-26T02:14:45.770Z,10.60
2019-02-26T02:17:14.733Z,8.43
2019-02-26T02:19:43.997Z,10.40
2019-02-26T02:22:14.628Z,9.70
2019-02-26T02:24:46.168Z,11.23
2019-02-26T02:27:19.527Z,8.13
2019-02-26T02:29:48.254Z,7.63
2019-02-26T02:32:16.957Z,10.40
2019-02-26T02:34:45.947Z,9.47
2019-02-26T02:37:17.360Z,11.43
2019-02-26T02:39:45.630Z,11.10
2019-02-26T02:42:17.110Z,10.33
2019-02-26T02:44:46.907Z,10.17
2019-02-26T02:47:15.937Z,10.43
2019-02-26T02:49:44.645Z,10.33
2019-02-26T02:52:13.638Z,11.03
2019-02-26T02:54:43.964Z,9.63
2019-02-26T02:57:13.032Z,8.90
2019-02-26T02:59:42.367Z,9.90
2019-02-26T03:02:12.683Z,8.73
2019-02-26T03:04:41.869Z,10.73
2019-02-26T03:07:10.677Z,14.47
2019-02-26T03:09:40.719Z,9.10
2019-02-26T03:12:10.086Z,8.50
2019-02-26T03:14:41.755Z,9.40
2019-02-26T03:17:11.164Z,9.53
2019-02-26T03:19:43.588Z,9.77
2019-02-26T03:22:12.793Z,11.03
2019-02-26T03:24:42.242Z,12.33
2019-02-26T03:27:11.222Z,8.47
2019-02-26T03:29:40.206Z,8.57
2019-02-26T03:32:08.914Z,9.70
2019-02-26T03:34:37.899Z,18.30
2019-02-26T03:37:08.212Z,11.13
2019-02-26T03:39:37.024Z,8.70
2019-02-26T03:42:05.863Z,11.97
2019-02-26T03:44:34.595Z,11.03
2019-02-26T03:47:22.561Z,10.07
2019-02-26T03:49:51.280Z,11.80
2019-02-26T03:52:20.334Z,13.73
2019-02-26T03:54:50.688Z,11.43
2019-02-26T03:57:22.059Z,9.40
2019-02-26T03:59:50.373Z,11.67
2019-02-26T04:02:23.317Z,10.13
2019-02-26T04:04:53.914Z,11.27
2019-02-26T04:07:22.828Z,11.33
2019-02-26T04:09:53.180Z,11.70
2019-02-26T04:12:22.884Z,9.37
2019-02-26T04:14:51.922Z,13.97
2019-02-26T04:17:23.219Z,13.97
2019-02-26T04:19:51.071Z,12.40
2019-02-26T04:22:30.805Z,15.07
2019-02-26T04:25:31.350Z,10.73
2019-02-26T04:28:19.090Z,12.80
2019-02-26T04:31:38.650Z,9.90
2019-02-26T04:34:34.525Z,10.00
2019-02-26T04:37:20.457Z,10.90
2019-02-26T04:40:23.858Z,11.73
2019-02-26T04:43:34.138Z,10.73
2019-02-26T04:47:00.378Z,8.40
2019-02-26T04:49:33.346Z,11.93
2019-02-26T04:52:02.949Z,14.83
2019-02-26T04:54:33.647Z,14.20
2019-02-26T04:57:02.646Z,11.57
2019-02-26T04:59:32.409Z,13.83
2019-02-26T05:02:02.090Z,13.50
2019-02-26T05:04:33.968Z,13.17
2019-02-26T05:07:04.419Z,11.70
2019-02-26T05:09:33.211Z,11.27
2019-02-26T05:12:02.471Z,12.70
2019-02-26T05:14:31.193Z,12.40
2019-02-26T05:17:00.191Z,11.80
2019-02-26T05:19:28.894Z,14.67
2019-02-26T05:21:59.394Z,12.87
2019-02-26T05:24:29.274Z,13.53
2019-02-26T05:26:58.814Z,15.27
2019-02-26T05:29:27.800Z,16.50
2019-02-26T05:31:58.875Z,12.90
2019-02-26T05:34:27.670Z,14.30
2019-02-26T05:36:56.382Z,13.97
2019-02-26T05:39:26.766Z,15.20
2019-02-26T05:41:58.103Z,14.57
2019-02-26T05:44:26.086Z,15.30
2019-02-26T05:46:56.672Z,13.80
2019-02-26T05:49:25.505Z,14.17
2019-02-26T05:51:56.717Z,15.70
2019-02-26T05:54:24.881Z,13.47
2019-02-26T05:56:53.867Z,13.47
2019-02-26T05:59:22.600Z,13.63
2019-02-26T06:01:53.192Z,14.60
2019-02-26T06:04:22.016Z,14.13
2019-02-26T06:06:56.402Z,16.00
2019-02-26T06:09:26.111Z,16.97
2019-02-26T06:11:55.452Z,16.60
2019-02-26T06:14:25.538Z,15.50
2019-02-26T06:16:55.889Z,17.43
2019-02-26T06:19:44.972Z,17.33
2019-02-26T06:22:17.315Z,15.93
2019-02-26T06:24:44.957Z,18.53
2019-02-26T06:27:15.990Z,15.23
2019-02-26T06:29:44.725Z,15.97
2019-02-26T06:32:14.913Z,16.83
2019-02-26T06:34:43.641Z,18.20
2019-02-26T06:37:18.013Z,18.60
2019-02-26T06:39:50.535Z,18.83
2019-02-26T06:42:17.185Z,16.10
2019-02-26T06:44:48.869Z,14.70
2019-02-26T06:47:16.939Z,23.50
2019-02-26T06:49:46.258Z,17.60
2019-02-26T06:52:17.973Z,15.53
2019-02-26T06:54:50.774Z,16.60
2019-02-26T06:57:17.468Z,19.57
2019-02-26T06:59:46.201Z,14.20
2019-02-26T07:02:14.910Z,14.07
2019-02-26T07:04:43.676Z,13.83
2019-02-26T07:07:14.403Z,16.47
2019-02-26T07:09:43.900Z,17.87
2019-02-26T07:12:14.568Z,16.50
2019-02-26T07:14:43.873Z,17.60
2019-02-26T07:17:12.600Z,16.33
2019-02-26T07:19:41.350Z,18.17
2019-02-26T07:22:11.596Z,22.83
2019-02-26T07:24:41.787Z,16.87
2019-02-26T07:27:12.116Z,16.60
2019-02-26T07:29:42.880Z,22.63
2019-02-26T07:32:14.591Z,18.27
2019-02-26T07:34:45.274Z,18.27
2019-02-26T07:37:15.814Z,19.87
2019-02-26T07:39:46.836Z,18.57
2019-02-26T07:42:16.932Z,15.40
2019-02-26T07:44:45.889Z,17.50
2019-02-26T07:47:15.101Z,16.77
2019-02-26T07:49:44.059Z,13.67
2019-02-26T07:52:12.865Z,14.97
2019-02-26T07:54:42.779Z,16.70
2019-02-26T07:57:12.311Z,17.43
2019-02-26T07:59:42.660Z,18.87
2019-02-26T08:02:13.476Z,17.97
2019-02-26T08:04:43.592Z,17.30
2019-02-26T08:07:12.794Z,20.10
2019-02-26T08:09:41.810Z,17.90
2019-02-26T08:12:11.362Z,17.10
2019-02-26T08:14:42.752Z,13.30
2019-02-26T08:17:11.556Z,15.33
2019-02-26T08:19:43.756Z,16.83
2019-02-26T08:22:10.988Z,25.90
2019-02-26T08:24:39.953Z,20.67
2019-02-26T08:27:11.072Z,19.97
2019-02-26T08:29:39.523Z,20.70
2019-02-26T08:32:08.794Z,16.90
2019-02-26T08:34:39.974Z,17.30
2019-02-26T08:37:09.500Z,17.43
2019-02-26T08:39:41.462Z,16.53
2019-02-26T08:42:12.319Z,15.73
2019-02-26T08:44:41.673Z,15.27
2019-02-26T08:47:13.513Z,15.90
2019-02-26T08:50:01.760Z,17.80
2019-02-26T08:52:30.228Z,19.60
2019-02-26T08:54:59.058Z,14.20
2019-02-26T08:57:27.863Z,17.70
2019-02-26T08:59:57.305Z,15.57
2019-02-26T09:02:26.488Z,16.30
2019-02-26T09:05:14.702Z,18.40
2019-02-26T09:07:45.575Z,17.53
2019-02-26T09:10:17.551Z,18.90
2019-02-26T09:12:48.709Z,16.17
2019-02-26T09:15:17.391Z,15.47
2019-02-26T09:17:46.650Z,15.53
2019-02-26T09:20:15.962Z,20.00
2019-02-26T09:22:47.864Z,16.27
2019-02-26T09:25:16.145Z,18.10
2019-02-26T09:27:44.939Z,24.47
2019-02-26T09:30:16.213Z,20.50
2019-02-26T09:32:45.166Z,23.03
2019-02-26T09:35:16.848Z,21.43
2019-02-26T09:37:47.343Z,18.97
2019-02-26T09:40:17.113Z,21.50
2019-02-26T09:42:51.198Z,21.53
2019-02-26T09:45:19.949Z,22.13
2019-02-26T09:47:49.712Z,23.83
2019-02-26T09:50:20.763Z,23.80
2019-02-26T09:52:50.841Z,28.53
2019-02-26T09:55:20.137Z,24.03
2019-02-26T09:57:48.933Z,22.37
2019-02-26T10:00:20.320Z,26.20
2019-02-26T10:02:49.491Z,22.03
2019-02-26T10:05:19.510Z,26.43
2019-02-26T10:07:48.358Z,35.33
2019-02-26T10:10:19.241Z,27.77
2019-02-26T10:12:48.077Z,24.30
2019-02-26T10:15:17.242Z,19.67
2019-02-26T10:17:45.933Z,29.33
2019-02-26T10:20:17.740Z,30.73
2019-02-26T10:22:47.631Z,25.37
2019-02-26T10:25:16.466Z,23.70
2019-02-26T10:27:47.798Z,25.10
2019-02-26T10:30:17.257Z,25.57
2019-02-26T10:32:47.001Z,27.13
2019-02-26T10:35:19.488Z,26.27
2019-02-26T10:37:50.604Z,33.10
2019-02-26T10:40:19.581Z,28.93
2019-02-26T10:42:48.621Z,30.40
2019-02-26T10:45:19.863Z,30.17
2019-02-26T10:47:50.822Z,30.67
2019-02-26T10:50:22.356Z,29.30
2019-02-26T10:52:52.585Z,34.87
2019-02-26T10:55:24.297Z,30.53
2019-02-26T10:57:52.538Z,32.13
2019-02-26T11:00:25.928Z,40.10
2019-02-26T11:02:54.836Z,32.33
2019-02-26T11:05:26.281Z,33.60
2019-02-26T11:07:57.902Z,28.33
2019-02-26T11:10:25.263Z,28.73
2019-02-26T11:12:56.255Z,26.10
2019-02-26T11:15:26.813Z,25.80
2019-02-26T11:17:55.900Z,30.50
2019-02-26T11:20:27.838Z,25.83
2019-02-26T11:22:55.597Z,27.30
2019-02-26T11:25:26.915Z,31.47
2019-02-26T11:27:55.053Z,35.43
2019-02-26T11:30:27.189Z,35.10
2019-02-26T11:32:58.622Z,26.83
2019-02-26T11:35:27.438Z,30.77
2019-02-26T11:37:57.991Z,29.27
2019-02-26T11:40:29.576Z,31.83
2019-02-26T11:43:00.135Z,28.37
2019-02-26T11:45:28.828Z,30.90
2019-02-26T11:48:00.412Z,29.10
2019-02-26T11:50:28.576Z,25.17
2019-02-26T11:52:57.555Z,27.70
2019-02-26T11:55:31.997Z,26.63
2019-02-26T11:58:00.586Z,27.97
2019-02-26T12:00:50.783Z,25.83
2019-02-26T12:03:27.223Z,30.17
2019-02-26T12:06:12.876Z,26.47
2019-02-26T12:08:43.162Z,25.97
2019-02-26T12:11:17.468Z,23.67
2019-02-26T12:13:44.582Z,22.80
2019-02-26T12:16:13.362Z,27.90
2019-02-26T12:18:44.415Z,27.63
2019-02-26T12:21:12.905Z,25.77
2019-02-26T12:23:44.136Z,25.50
2019-02-26T12:26:12.370Z,23.17
2019-02-26T12:28:41.086Z,20.23
2019-02-26T12:31:12.812Z,25.00
2019-02-26T12:33:40.845Z,19.87
2019-02-26T12:36:10.226Z,19.77
2019-02-26T12:38:39.782Z,22.77
2019-02-26T12:41:11.588Z,16.53
2019-02-26T12:43:42.586Z,16.90
2019-02-26T12:46:09.945Z,26.07
2019-02-26T12:51:12.633Z,16.97
2019-02-26T12:53:49.995Z,14.17
2019-02-26T12:56:20.582Z,16.70
2019-02-26T12:58:53.944Z,15.93
2019-02-26T13:01:20.926Z,18.53
2019-02-26T13:03:54.005Z,17.63
2019-02-26T13:06:22.620Z,21.17
2019-02-26T13:08:50.899Z,19.07
2019-02-26T13:11:21.128Z,17.90
2019-02-26T13:13:53.315Z,17.20
2019-02-26T13:16:21.823Z,21.33
2019-02-26T13:18:52.595Z,18.10
2019-02-26T13:21:21.841Z,17.17
2019-02-26T13:23:51.078Z,15.20
2019-02-26T13:26:22.410Z,16.47
2019-02-26T13:28:52.853Z,14.17
2019-02-26T13:31:22.487Z,15.77
2019-02-26T13:33:52.757Z,16.77
2019-02-26T13:36:23.378Z,16.43
2019-02-26T13:38:52.221Z,19.47
2019-02-26T13:41:29.524Z,15.43
2019-02-26T13:43:52.270Z,32.03
2019-02-26T13:46:20.993Z,17.10
2019-02-26T13:48:50.298Z,19.60
2019-02-26T13:51:19.396Z,16.47
2019-02-26T13:53:48.369Z,16.10
2019-02-26T13:56:19.683Z,18.87
2019-02-26T13:58:48.765Z,16.10
2019-02-26T14:01:17.556Z,24.77
2019-02-26T14:03:46.534Z,21.67
2019-02-26T14:06:15.802Z,24.10
2019-02-26T14:08:44.913Z,19.53
2019-02-26T14:11:13.894Z,21.23
2019-02-26T14:13:43.227Z,23.10
2019-02-26T14:16:12.591Z,24.23
2019-02-26T14:18:41.416Z,22.43
2019-02-26T14:21:10.411Z,20.27
2019-02-26T14:23:39.392Z,23.30
2019-02-26T14:26:08.179Z,20.97
2019-02-26T14:28:36.949Z,23.30
2019-02-26T14:31:07.048Z,24.60
2019-02-26T14:33:36.160Z,21.10
2019-02-26T14:36:05.050Z,24.60
2019-02-26T14:38:35.085Z,23.97
2019-02-26T14:41:05.331Z,20.10
2019-02-26T14:43:36.243Z,18.50
2019-02-26T14:46:05.346Z,20.47
2019-02-26T14:48:36.510Z,24.20
2019-02-26T14:51:05.408Z,21.30
2019-02-26T14:53:34.700Z,21.20
2019-02-26T14:56:03.812Z,20.17
2019-02-26T14:58:32.641Z,19.27
2019-02-26T15:01:01.673Z,18.93
2019-02-26T15:03:30.696Z,18.60
2019-02-26T15:06:00.027Z,17.93
2019-02-26T15:08:28.959Z,16.60
2019-02-26T15:10:58.016Z,20.57
2019-02-26T15:13:26.915Z,14.80
2019-02-26T15:15:55.825Z,16.17
2019-02-26T15:18:24.638Z,19.93
2019-02-26T15:20:54.007Z,19.57
2019-02-26T15:23:23.188Z,17.80
2019-02-26T15:25:51.997Z,20.07
2019-02-26T15:28:20.822Z,21.83
2019-02-26T15:30:49.855Z,18.47
2019-02-26T15:33:18.594Z,17.87
2019-02-26T15:35:47.828Z,20.10
2019-02-26T15:38:16.592Z,18.43
2019-02-26T15:40:45.521Z,20.70
2019-02-26T15:43:14.322Z,19.30
2019-02-26T15:45:51.570Z,21.13
2019-02-26T15:48:13.725Z,24.93
2019-02-26T15:50:42.583Z,19.13
2019-02-26T15:53:11.390Z,22.13
2019-02-26T15:55:40.494Z,22.73
2019-02-26T15:58:09.240Z,20.20
2019-02-26T16:00:38.525Z,20.20
2019-02-26T16:03:07.617Z,23.70
2019-02-26T16:05:36.710Z,23.00
2019-02-26T16:08:06.428Z,21.90
2019-02-26T16:10:35.371Z,25.40
2019-02-26T16:13:04.535Z,34.90
2019-02-26T16:15:34.669Z,26.80
2019-02-26T16:18:03.665Z,26.07
2019-02-26T16:20:32.644Z,26.70
2019-02-26T16:23:01.368Z,25.30
2019-02-26T16:25:30.345Z,32.53
2019-02-26T16:27:59.055Z,29.70
2019-02-26T16:30:28.116Z,22.20
2019-02-26T16:32:57.278Z,22.07
2019-02-26T16:35:26.189Z,34.67
2019-02-26T16:37:55.188Z,24.73
2019-02-26T16:40:23.982Z,26.97
2019-02-26T16:42:53.044Z,23.57
2019-02-26T16:45:22.325Z,33.27
2019-02-26T16:48:10.316Z,23.60
2019-02-26T16:50:39.433Z,20.73
2019-02-26T16:53:08.306Z,26.53
2019-02-26T16:55:39.436Z,25.60
2019-02-26T16:58:12.002Z,18.80
2019-02-26T17:00:41.348Z,25.03
2019-02-26T17:03:11.950Z,27.10
2019-02-26T17:05:41.052Z,18.40
2019-02-26T17:08:09.824Z,23.67
2019-02-26T17:10:38.567Z,27.30
2019-02-26T17:13:07.300Z,20.07
2019-02-26T17:15:36.044Z,21.80
2019-02-26T17:18:09.208Z,21.83
2019-02-26T17:20:35.611Z,23.13
2019-02-26T17:23:23.581Z,20.93
2019-02-26T17:25:54.277Z,22.50
2019-02-26T17:28:23.097Z,28.90
2019-02-26T17:30:51.837Z,22.97
2019-02-26T17:33:21.118Z,18.07
2019-02-26T17:35:50.358Z,24.03
2019-02-26T17:38:19.329Z,23.70
2019-02-26T17:40:48.069Z,22.83
2019-02-26T17:43:16.813Z,20.77
2019-02-26T17:45:45.785Z,16.73
2019-02-26T17:48:14.780Z,18.53
2019-02-26T17:50:46.032Z,18.20
2019-02-26T17:53:13.957Z,20.10
2019-02-26T17:55:42.712Z,16.73
2019-02-26T17:58:11.449Z,20.50
2019-02-26T18:00:42.683Z,19.50
2019-02-26T18:03:11.598Z,18.60
2019-02-26T18:05:50.606Z,17.13
2019-02-26T18:08:11.034Z,18.93
2019-02-26T18:10:40.119Z,21.27
2019-02-26T18:13:09.121Z,18.90
2019-02-26T18:15:37.854Z,19.40
2019-02-26T18:18:06.567Z,18.70
2019-02-26T18:20:35.354Z,17.73
2019-02-26T18:23:04.138Z,16.63
2019-02-26T18:25:33.213Z,15.57
2019-02-26T18:28:01.956Z,18.27
2019-02-26T18:30:30.910Z,20.77
2019-02-26T18:33:00.012Z,24.57
2019-02-26T18:35:28.779Z,22.23
2019-02-26T18:37:58.026Z,23.00
2019-02-26T18:40:28.312Z,21.27
2019-02-26T18:42:57.936Z,19.60
2019-02-26T18:45:27.925Z,23.13
2019-02-26T18:47:57.504Z,22.70
2019-02-26T18:50:28.535Z,23.60
2019-02-26T18:52:58.157Z,25.17
2019-02-26T18:55:28.397Z,22.27
2019-02-26T18:57:58.044Z,20.17
2019-02-26T19:00:29.166Z,22.37
2019-02-26T19:02:57.970Z,19.50
2019-02-26T19:05:26.850Z,16.33
2019-02-26T19:07:56.327Z,20.47
2019-02-26T19:10:26.001Z,23.03
2019-02-26T19:12:55.456Z,17.43
2019-02-26T19:15:24.862Z,20.50
2019-02-26T19:17:54.459Z,24.43
2019-02-26T19:20:26.043Z,18.80
2019-02-26T19:22:58.864Z,23.43
2019-02-26T19:25:28.342Z,22.67
2019-02-26T19:27:57.704Z,22.67
2019-02-26T19:30:26.799Z,18.47
2019-02-26T19:32:56.130Z,22.17
2019-02-26T19:35:25.107Z,19.90
2019-02-26T19:37:55.974Z,24.63
2019-02-26T19:40:27.855Z,22.80
2019-02-26T19:42:57.058Z,19.03
2019-02-26T19:45:26.033Z,23.23
2019-02-26T19:47:57.716Z,23.50
2019-02-26T19:50:26.522Z,24.30
2019-02-26T19:52:57.183Z,26.70
2019-02-26T19:55:28.368Z,27.27
2019-02-26T19:58:02.894Z,25.93
2019-02-26T20:00:29.118Z,35.50
2019-02-26T20:02:58.070Z,29.93
2019-02-26T20:05:27.367Z,27.60
2019-02-26T20:07:56.580Z,25.83
2019-02-26T20:10:25.814Z,25.27
2019-02-26T20:12:54.883Z,23.60
2019-02-26T20:15:24.228Z,28.40
2019-02-26T20:17:53.249Z,23.50
2019-02-26T20:20:22.343Z,20.87
2019-02-26T20:22:52.093Z,20.90
2019-02-26T20:25:21.146Z,24.00
2019-02-26T20:27:49.877Z,23.23
2019-02-26T20:30:19.642Z,21.83
2019-02-26T20:32:48.771Z,25.87
2019-02-26T20:35:17.874Z,26.10
2019-02-26T20:37:47.038Z,24.50
2019-02-26T20:40:17.355Z,21.17
2019-02-26T20:42:46.485Z,19.90
2019-02-26T20:45:18.893Z,22.23
2019-02-26T20:47:48.244Z,24.47
2019-02-26T20:50:20.094Z,24.10
2019-02-26T20:52:48.122Z,24.20
2019-02-26T20:55:19.199Z,27.63
2019-02-26T20:57:49.370Z,19.87
2019-02-26T21:00:18.764Z,23.27
2019-02-26T21:02:51.068Z,22.97
2019-02-26T21:05:20.008Z,23.10
2019-02-26T21:07:50.493Z,19.53
2019-02-26T21:10:20.782Z,19.83
2019-02-26T21:12:50.062Z,24.13
2019-02-26T21:15:19.030Z,26.50
2019-02-26T21:17:48.109Z,21.83
2019-02-26T21:20:16.995Z,20.70
2019-02-26T21:22:46.016Z,23.53
2019-02-26T21:25:15.286Z,19.03
2019-02-26T21:27:44.659Z,19.57
2019-02-26T21:30:15.567Z,22.90
2019-02-26T21:32:45.305Z,21.30
2019-02-26T21:35:14.261Z,22.80
2019-02-26T21:37:43.075Z,24.30
2019-02-26T21:40:15.822Z,18.27
2019-02-26T21:42:47.043Z,19.70
2019-02-26T21:45:16.548Z,17.33
2019-02-26T21:47:45.437Z,19.83
2019-02-26T21:50:14.292Z,22.30
2019-02-26T21:52:43.412Z,21.70
2019-02-26T21:55:12.579Z,20.40
2019-02-26T21:57:41.811Z,18.97
2019-02-26T22:00:13.556Z,22.40
2019-02-26T22:02:44.345Z,22.40
2019-02-26T22:05:13.646Z,20.30
2019-02-26T22:07:42.829Z,20.57
2019-02-26T22:10:12.831Z,22.50
2019-02-26T22:12:41.637Z,16.50
2019-02-26T22:15:11.885Z,18.33
2019-02-26T22:17:41.185Z,22.60
2019-02-26T22:20:21.656Z,23.63
2019-02-26T22:22:42.555Z,20.27
2019-02-26T22:25:15.794Z,19.57
2019-02-26T22:27:42.371Z,20.07
2019-02-26T22:30:14.033Z,24.33
2019-02-26T22:32:43.409Z,16.67
2019-02-26T22:35:31.431Z,19.30
2019-02-26T22:38:00.401Z,21.57
2019-02-26T22:40:29.701Z,20.47
2019-02-26T22:42:58.521Z,19.17
2019-02-26T22:45:27.947Z,20.17
2019-02-26T22:47:57.289Z,19.60
2019-02-26T22:50:27.234Z,18.80
2019-02-26T22:52:56.592Z,19.40
2019-02-26T22:55:25.300Z,18.70
2019-02-26T22:57:54.142Z,20.03
2019-02-26T23:00:48.232Z,25.50
2019-02-26T23:03:14.963Z,18.10
2019-02-26T23:05:43.653Z,18.00
2019-02-26T23:08:12.828Z,19.60
2019-02-26T23:10:42.351Z,18.50
2019-02-26T23:13:11.317Z,20.90
2019-02-26T23:15:45.147Z,18.13
2019-02-26T23:18:11.608Z,15.93
2019-02-26T23:20:42.503Z,14.17
2019-02-26T23:23:10.923Z,15.50
2019-02-26T23:25:39.623Z,16.50
2019-02-26T23:28:08.707Z,16.50
2019-02-26T23:30:37.556Z,16.60
2019-02-26T23:33:07.137Z,15.53
2019-02-26T23:35:35.963Z,17.63
2019-02-26T23:38:07.988Z,13.90
2019-02-26T23:40:35.656Z,13.87
2019-02-26T23:43:04.719Z,16.63
2019-02-26T23:45:33.980Z,14.60
2019-02-26T23:48:02.949Z,16.43
2019-02-26T23:50:32.446Z,15.90
2019-02-26T23:53:01.762Z,12.30
2019-02-26T23:55:30.602Z,13.00
2019-02-26T23:57:59.336Z,14.93
